sensor_id;sensor_type;location;lat;lon;timestamp;P1;durP1;ratioP1;P2;durP2;ratioP2
76725;SDS011;65651;53.154;17.916;2024-03-23T00:53:10;12.60;;;3.90;;
76725;SDS011;65651;53.154;17.916;2024-03-23T00:55:37;12.60;;;3.90;;
76725;SDS011;65651;53.154;17.916;2024-03-23T00:58:03;11.20;;;4.10;;
76725;SDS011;65651;53.154;17.916;2024-03-23T01:00:30;9.30;;;4.20;;
76725;SDS011;65651;53.154;17.916;2024-03-23T01:02:57;12.30;;;4.10;;
76725;SDS011;65651;53.154;17.916;2024-03-23T01:05:24;10.80;;;4.10;;
76725;SDS011;65651;53.154;17.916;2024-03-23T01:07:51;9.20;;;3.50;;
76725;SDS011;65651;53.154;17.916;2024-03-23T01:10:20;9.20;;;3.70;;
76725;SDS011;65651;53.154;17.916;2024-03-23T01:12:46;9.10;;;3.90;;
76725;SDS011;65651;53.154;17.916;2024-03-23T01:15:15;10.80;;;3.90;;
76725;SDS011;65651;53.154;17.916;2024-03-23T01:17:42;12.70;;;4.30;;
76725;SDS011;65651;53.154;17.916;2024-03-23T01:20:09;14.20;;;4.00;;
76725;SDS011;65651;53.154;17.916;2024-03-23T01:22:37;10.20;;;3.40;;
76725;SDS011;65651;53.154;17.916;2024-03-23T01:25:04;9.60;;;3.50;;
76725;SDS011;65651;53.154;17.916;2024-03-23T01:27:31;14.70;;;3.70;;
76725;SDS011;65651;53.154;17.916;2024-03-23T01:29:58;15.40;;;3.90;;
76725;SDS011;65651;53.154;17.916;2024-03-23T01:32:24;9.50;;;3.50;;
76725;SDS011;65651;53.154;17.916;2024-03-23T01:34:53;13.40;;;3.80;;
76725;SDS011;65651;53.154;17.916;2024-03-23T01:37:19;12.90;;;4.00;;
76725;SDS011;65651;53.154;17.916;2024-03-23T01:39:46;11.70;;;3.70;;
76725;SDS011;65651;53.154;17.916;2024-03-23T01:42:13;12.30;;;3.80;;
76725;SDS011;65651;53.154;17.916;2024-03-23T01:44:40;17.60;;;3.60;;
76725;SDS011;65651;53.154;17.916;2024-03-23T01:47:07;14.10;;;3.90;;
76725;SDS011;65651;53.154;17.916;2024-03-23T01:49:34;10.10;;;4.30;;
76725;SDS011;65651;53.154;17.916;2024-03-23T01:52:02;16.80;;;4.60;;
76725;SDS011;65651;53.154;17.916;2024-03-23T01:54:29;19.90;;;4.00;;
76725;SDS011;65651;53.154;17.916;2024-03-23T01:56:57;14.70;;;4.20;;
76725;SDS011;65651;53.154;17.916;2024-03-23T01:59:26;12.30;;;3.30;;
76725;SDS011;65651;53.154;17.916;2024-03-23T02:01:52;10.10;;;3.10;;
76725;SDS011;65651;53.154;17.916;2024-03-23T02:04:19;16.60;;;3.50;;
76725;SDS011;65651;53.154;17.916;2024-03-23T02:06:46;13.60;;;2.70;;
76725;SDS011;65651;53.154;17.916;2024-03-23T02:09:13;14.30;;;3.40;;
76725;SDS011;65651;53.154;17.916;2024-03-23T02:11:40;15.00;;;3.40;;
76725;SDS011;65651;53.154;17.916;2024-03-23T02:14:07;12.30;;;3.60;;
76725;SDS011;65651;53.154;17.916;2024-03-23T02:16:34;13.30;;;3.40;;
76725;SDS011;65651;53.154;17.916;2024-03-23T02:19:00;13.80;;;3.00;;
76725;SDS011;65651;53.154;17.916;2024-03-23T02:21:27;13.20;;;3.20;;
76725;SDS011;65651;53.154;17.916;2024-03-23T02:23:59;13.60;;;3.50;;
76725;SDS011;65651;53.154;17.916;2024-03-23T02:26:26;8.60;;;2.70;;
76725;SDS011;65651;53.154;17.916;2024-03-23T02:28:53;14.70;;;3.60;;
76725;SDS011;65651;53.154;17.916;2024-03-23T02:31:26;12.30;;;2.60;;
76725;SDS011;65651;53.154;17.916;2024-03-23T02:33:54;14.10;;;3.60;;
76725;SDS011;65651;53.154;17.916;2024-03-23T02:36:20;13.20;;;3.70;;
76725;SDS011;65651;53.154;17.916;2024-03-23T02:38:47;17.70;;;3.80;;
76725;SDS011;65651;53.154;17.916;2024-03-23T02:41:14;13.30;;;3.80;;
76725;SDS011;65651;53.154;17.916;2024-03-23T02:43:41;14.10;;;3.60;;
76725;SDS011;65651;53.154;17.916;2024-03-23T02:46:09;17.10;;;3.50;;
76725;SDS011;65651;53.154;17.916;2024-03-23T02:48:36;12.00;;;3.30;;
76725;SDS011;65651;53.154;17.916;2024-03-23T02:51:03;17.00;;;3.80;;
76725;SDS011;65651;53.154;17.916;2024-03-23T02:53:30;18.90;;;4.00;;
76725;SDS011;65651;53.154;17.916;2024-03-23T02:55:59;20.50;;;4.20;;
76725;SDS011;65651;53.154;17.916;2024-03-23T02:58:26;15.80;;;3.40;;
76725;SDS011;65651;53.154;17.916;2024-03-23T03:00:55;14.50;;;3.90;;
76725;SDS011;65651;53.154;17.916;2024-03-23T03:03:22;12.20;;;3.20;;
76725;SDS011;65651;53.154;17.916;2024-03-23T03:05:54;12.60;;;3.80;;
76725;SDS011;65651;53.154;17.916;2024-03-23T03:08:22;10.50;;;3.30;;
76725;SDS011;65651;53.154;17.916;2024-03-23T03:10:49;14.20;;;3.40;;
76725;SDS011;65651;53.154;17.916;2024-03-23T03:13:16;13.30;;;3.20;;
76725;SDS011;65651;53.154;17.916;2024-03-23T03:15:43;11.40;;;3.70;;
76725;SDS011;65651;53.154;17.916;2024-03-23T03:18:10;15.60;;;4.30;;
76725;SDS011;65651;53.154;17.916;2024-03-23T03:20:38;13.40;;;3.30;;
76725;SDS011;65651;53.154;17.916;2024-03-23T03:23:08;10.60;;;3.20;;
76725;SDS011;65651;53.154;17.916;2024-03-23T03:25:37;11.20;;;3.80;;
76725;SDS011;65651;53.154;17.916;2024-03-23T03:28:04;14.80;;;4.60;;
76725;SDS011;65651;53.154;17.916;2024-03-23T03:30:31;11.00;;;4.30;;
76725;SDS011;65651;53.154;17.916;2024-03-23T03:33:00;13.20;;;4.80;;
76725;SDS011;65651;53.154;17.916;2024-03-23T03:35:28;19.80;;;6.00;;
76725;SDS011;65651;53.154;17.916;2024-03-23T03:37:56;19.30;;;6.30;;
76725;SDS011;65651;53.154;17.916;2024-03-23T03:40:23;20.90;;;7.00;;
76725;SDS011;65651;53.154;17.916;2024-03-23T03:42:51;17.10;;;7.20;;
76725;SDS011;65651;53.154;17.916;2024-03-23T03:45:17;26.20;;;8.50;;
76725;SDS011;65651;53.154;17.916;2024-03-23T03:47:44;20.70;;;7.70;;
76725;SDS011;65651;53.154;17.916;2024-03-23T03:50:11;22.00;;;7.90;;
76725;SDS011;65651;53.154;17.916;2024-03-23T03:52:38;25.30;;;7.10;;
76725;SDS011;65651;53.154;17.916;2024-03-23T03:55:06;17.50;;;6.40;;
76725;SDS011;65651;53.154;17.916;2024-03-23T03:57:39;19.20;;;6.00;;
76725;SDS011;65651;53.154;17.916;2024-03-23T04:00:06;18.30;;;5.00;;
76725;SDS011;65651;53.154;17.916;2024-03-23T04:02:37;17.00;;;5.30;;
76725;SDS011;65651;53.154;17.916;2024-03-23T04:05:05;15.70;;;5.10;;
76725;SDS011;65651;53.154;17.916;2024-03-23T04:07:32;18.30;;;5.20;;
76725;SDS011;65651;53.154;17.916;2024-03-23T04:09:58;14.20;;;5.40;;
76725;SDS011;65651;53.154;17.916;2024-03-23T04:12:30;20.50;;;4.40;;
76725;SDS011;65651;53.154;17.916;2024-03-23T04:14:57;13.30;;;3.90;;
76725;SDS011;65651;53.154;17.916;2024-03-23T04:17:31;16.90;;;3.90;;
76725;SDS011;65651;53.154;17.916;2024-03-23T04:20:01;18.40;;;4.20;;
76725;SDS011;65651;53.154;17.916;2024-03-23T04:22:29;17.80;;;4.00;;
76725;SDS011;65651;53.154;17.916;2024-03-23T04:24:56;18.00;;;4.50;;
76725;SDS011;65651;53.154;17.916;2024-03-23T04:27:24;14.50;;;3.50;;
76725;SDS011;65651;53.154;17.916;2024-03-23T04:29:52;12.90;;;3.30;;
76725;SDS011;65651;53.154;17.916;2024-03-23T04:32:21;17.30;;;4.00;;
76725;SDS011;65651;53.154;17.916;2024-03-23T04:34:49;14.30;;;3.40;;
76725;SDS011;65651;53.154;17.916;2024-03-23T04:37:16;12.80;;;3.20;;
76725;SDS011;65651;53.154;17.916;2024-03-23T04:39:43;17.20;;;4.10;;
76725;SDS011;65651;53.154;17.916;2024-03-23T04:42:09;17.00;;;3.80;;
76725;SDS011;65651;53.154;17.916;2024-03-23T04:44:36;15.50;;;3.50;;
76725;SDS011;65651;53.154;17.916;2024-03-23T04:47:06;13.80;;;3.40;;
76725;SDS011;65651;53.154;17.916;2024-03-23T04:49:39;18.90;;;4.10;;
76725;SDS011;65651;53.154;17.916;2024-03-23T04:52:06;20.00;;;4.30;;
76725;SDS011;65651;53.154;17.916;2024-03-23T04:54:33;12.20;;;3.90;;
76725;SDS011;65651;53.154;17.916;2024-03-23T04:57:02;14.90;;;4.30;;
76725;SDS011;65651;53.154;17.916;2024-03-23T04:59:29;18.10;;;4.30;;
76725;SDS011;65651;53.154;17.916;2024-03-23T05:01:56;10.30;;;3.60;;
76725;SDS011;65651;53.154;17.916;2024-03-23T05:04:30;17.10;;;4.20;;
76725;SDS011;65651;53.154;17.916;2024-03-23T05:06:59;12.30;;;3.60;;
76725;SDS011;65651;53.154;17.916;2024-03-23T05:09:26;17.20;;;4.10;;
76725;SDS011;65651;53.154;17.916;2024-03-23T05:11:56;13.60;;;4.40;;
76725;SDS011;65651;53.154;17.916;2024-03-23T05:14:23;22.20;;;4.30;;
76725;SDS011;65651;53.154;17.916;2024-03-23T05:16:50;20.40;;;4.40;;
76725;SDS011;65651;53.154;17.916;2024-03-23T05:19:17;20.90;;;5.20;;
76725;SDS011;65651;53.154;17.916;2024-03-23T05:21:46;22.80;;;4.70;;
76725;SDS011;65651;53.154;17.916;2024-03-23T05:24:16;16.00;;;5.20;;
76725;SDS011;65651;53.154;17.916;2024-03-23T05:26:43;16.50;;;4.60;;
76725;SDS011;65651;53.154;17.916;2024-03-23T05:29:09;14.30;;;3.60;;
76725;SDS011;65651;53.154;17.916;2024-03-23T05:31:42;15.00;;;4.40;;
76725;SDS011;65651;53.154;17.916;2024-03-23T05:34:09;18.60;;;4.10;;
76725;SDS011;65651;53.154;17.916;2024-03-23T05:36:36;12.00;;;3.40;;
76725;SDS011;65651;53.154;17.916;2024-03-23T05:39:03;12.90;;;3.40;;
76725;SDS011;65651;53.154;17.916;2024-03-23T05:41:32;12.40;;;3.20;;
76725;SDS011;65651;53.154;17.916;2024-03-23T05:44:02;13.70;;;3.50;;
76725;SDS011;65651;53.154;17.916;2024-03-23T05:46:29;15.00;;;4.00;;
76725;SDS011;65651;53.154;17.916;2024-03-23T05:49:00;9.30;;;3.10;;
76725;SDS011;65651;53.154;17.916;2024-03-23T05:51:28;12.60;;;3.10;;
76725;SDS011;65651;53.154;17.916;2024-03-23T05:53:55;8.60;;;3.10;;
76725;SDS011;65651;53.154;17.916;2024-03-23T05:56:25;12.70;;;3.50;;
76725;SDS011;65651;53.154;17.916;2024-03-23T05:58:52;12.00;;;3.20;;
76725;SDS011;65651;53.154;17.916;2024-03-23T06:01:19;13.60;;;3.10;;
76725;SDS011;65651;53.154;17.916;2024-03-23T06:03:46;15.70;;;3.10;;
76725;SDS011;65651;53.154;17.916;2024-03-23T06:06:15;15.60;;;3.10;;
76725;SDS011;65651;53.154;17.916;2024-03-23T06:08:42;13.10;;;3.00;;
76725;SDS011;65651;53.154;17.916;2024-03-23T06:11:09;11.80;;;2.80;;
76725;SDS011;65651;53.154;17.916;2024-03-23T06:13:36;16.00;;;3.10;;
76725;SDS011;65651;53.154;17.916;2024-03-23T06:16:02;9.90;;;2.70;;
76725;SDS011;65651;53.154;17.916;2024-03-23T06:18:30;13.70;;;2.70;;
76725;SDS011;65651;53.154;17.916;2024-03-23T06:20:56;8.20;;;2.90;;
76725;SDS011;65651;53.154;17.916;2024-03-23T06:23:23;12.10;;;2.80;;
76725;SDS011;65651;53.154;17.916;2024-03-23T06:25:50;11.50;;;2.80;;
76725;SDS011;65651;53.154;17.916;2024-03-23T06:28:19;12.10;;;3.20;;
76725;SDS011;65651;53.154;17.916;2024-03-23T06:30:47;13.10;;;2.90;;
76725;SDS011;65651;53.154;17.916;2024-03-23T06:33:14;16.00;;;3.30;;
76725;SDS011;65651;53.154;17.916;2024-03-23T06:35:41;10.10;;;2.90;;
76725;SDS011;65651;53.154;17.916;2024-03-23T06:38:08;10.70;;;3.20;;
76725;SDS011;65651;53.154;17.916;2024-03-23T06:40:35;18.00;;;3.90;;
76725;SDS011;65651;53.154;17.916;2024-03-23T06:43:02;16.10;;;4.30;;
76725;SDS011;65651;53.154;17.916;2024-03-23T06:45:30;9.70;;;4.10;;
76725;SDS011;65651;53.154;17.916;2024-03-23T06:47:57;15.20;;;4.10;;
76725;SDS011;65651;53.154;17.916;2024-03-23T06:50:24;15.40;;;4.50;;
76725;SDS011;65651;53.154;17.916;2024-03-23T06:52:52;13.70;;;4.30;;
76725;SDS011;65651;53.154;17.916;2024-03-23T06:55:21;13.90;;;4.70;;
76725;SDS011;65651;53.154;17.916;2024-03-23T06:57:48;13.20;;;4.70;;
76725;SDS011;65651;53.154;17.916;2024-03-23T07:00:17;13.00;;;4.50;;
76725;SDS011;65651;53.154;17.916;2024-03-23T07:02:44;18.40;;;4.50;;
76725;SDS011;65651;53.154;17.916;2024-03-23T07:05:11;14.90;;;5.00;;
76725;SDS011;65651;53.154;17.916;2024-03-23T07:07:38;23.00;;;7.10;;
76725;SDS011;65651;53.154;17.916;2024-03-23T07:10:05;36.70;;;14.80;;
76725;SDS011;65651;53.154;17.916;2024-03-23T07:12:33;37.00;;;15.00;;
76725;SDS011;65651;53.154;17.916;2024-03-23T07:14:59;29.10;;;11.10;;
76725;SDS011;65651;53.154;17.916;2024-03-23T07:17:26;31.80;;;12.90;;
76725;SDS011;65651;53.154;17.916;2024-03-23T07:19:59;27.30;;;11.80;;
76725;SDS011;65651;53.154;17.916;2024-03-23T07:22:36;35.20;;;13.90;;
76725;SDS011;65651;53.154;17.916;2024-03-23T07:25:13;33.70;;;13.10;;
76725;SDS011;65651;53.154;17.916;2024-03-23T07:28:00;31.20;;;9.90;;
76725;SDS011;65651;53.154;17.916;2024-03-23T07:30:40;22.60;;;8.50;;
76725;SDS011;65651;53.154;17.916;2024-03-23T07:33:15;23.90;;;7.90;;
76725;SDS011;65651;53.154;17.916;2024-03-23T07:35:51;15.60;;;6.60;;
76725;SDS011;65651;53.154;17.916;2024-03-23T07:38:21;19.50;;;6.90;;
76725;SDS011;65651;53.154;17.916;2024-03-23T07:40:48;16.30;;;7.20;;
76725;SDS011;65651;53.154;17.916;2024-03-23T07:43:22;15.00;;;6.50;;
76725;SDS011;65651;53.154;17.916;2024-03-23T07:45:52;22.30;;;8.60;;
76725;SDS011;65651;53.154;17.916;2024-03-23T07:48:22;15.40;;;7.50;;
76725;SDS011;65651;53.154;17.916;2024-03-23T07:51:00;14.40;;;7.30;;
76725;SDS011;65651;53.154;17.916;2024-03-23T07:53:34;19.30;;;8.70;;
76725;SDS011;65651;53.154;17.916;2024-03-23T07:56:06;19.40;;;7.90;;
76725;SDS011;65651;53.154;17.916;2024-03-23T07:58:41;15.80;;;5.40;;
76725;SDS011;65651;53.154;17.916;2024-03-23T08:01:12;17.10;;;5.10;;
76725;SDS011;65651;53.154;17.916;2024-03-23T08:03:46;9.50;;;4.40;;
76725;SDS011;65651;53.154;17.916;2024-03-23T08:06:17;16.30;;;3.90;;
76725;SDS011;65651;53.154;17.916;2024-03-23T08:08:57;11.20;;;2.70;;
76725;SDS011;65651;53.154;17.916;2024-03-23T08:11:28;11.80;;;2.60;;
76725;SDS011;65651;53.154;17.916;2024-03-23T08:13:56;11.70;;;3.00;;
76725;SDS011;65651;53.154;17.916;2024-03-23T08:16:28;12.70;;;3.00;;
76725;SDS011;65651;53.154;17.916;2024-03-23T08:18:54;6.50;;;1.90;;
76725;SDS011;65651;53.154;17.916;2024-03-23T08:21:25;11.50;;;2.60;;
76725;SDS011;65651;53.154;17.916;2024-03-23T08:23:53;7.70;;;2.40;;
76725;SDS011;65651;53.154;17.916;2024-03-23T08:26:20;15.70;;;3.70;;
76725;SDS011;65651;53.154;17.916;2024-03-23T08:28:47;11.90;;;3.20;;
76725;SDS011;65651;53.154;17.916;2024-03-23T08:31:14;17.50;;;3.00;;
76725;SDS011;65651;53.154;17.916;2024-03-23T08:33:41;9.40;;;2.50;;
76725;SDS011;65651;53.154;17.916;2024-03-23T08:36:10;10.60;;;2.70;;
76725;SDS011;65651;53.154;17.916;2024-03-23T08:38:39;17.00;;;3.50;;
76725;SDS011;65651;53.154;17.916;2024-03-23T08:41:07;14.20;;;3.60;;
76725;SDS011;65651;53.154;17.916;2024-03-23T08:43:38;7.70;;;2.30;;
76725;SDS011;65651;53.154;17.916;2024-03-23T08:46:10;19.50;;;3.90;;
76725;SDS011;65651;53.154;17.916;2024-03-23T08:48:39;16.80;;;3.50;;
76725;SDS011;65651;53.154;17.916;2024-03-23T08:51:11;19.00;;;4.00;;
76725;SDS011;65651;53.154;17.916;2024-03-23T08:53:39;24.80;;;3.70;;
76725;SDS011;65651;53.154;17.916;2024-03-23T08:56:09;10.70;;;3.10;;
76725;SDS011;65651;53.154;17.916;2024-03-23T08:58:37;19.70;;;3.60;;
76725;SDS011;65651;53.154;17.916;2024-03-23T09:01:08;13.90;;;3.10;;
76725;SDS011;65651;53.154;17.916;2024-03-23T09:03:36;11.00;;;2.80;;
76725;SDS011;65651;53.154;17.916;2024-03-23T09:06:08;9.50;;;2.70;;
76725;SDS011;65651;53.154;17.916;2024-03-23T09:08:36;9.40;;;2.20;;
76725;SDS011;65651;53.154;17.916;2024-03-23T09:11:04;8.10;;;2.40;;
76725;SDS011;65651;53.154;17.916;2024-03-23T09:13:35;7.60;;;2.40;;
76725;SDS011;65651;53.154;17.916;2024-03-23T09:16:03;5.40;;;1.90;;
76725;SDS011;65651;53.154;17.916;2024-03-23T09:18:32;7.10;;;2.10;;
76725;SDS011;65651;53.154;17.916;2024-03-23T09:21:09;6.40;;;1.50;;
76725;SDS011;65651;53.154;17.916;2024-03-23T09:23:38;20.60;;;2.50;;
76725;SDS011;65651;53.154;17.916;2024-03-23T09:26:11;4.80;;;1.70;;
76725;SDS011;65651;53.154;17.916;2024-03-23T09:28:43;7.50;;;1.60;;
76725;SDS011;65651;53.154;17.916;2024-03-23T09:31:10;10.40;;;1.90;;
76725;SDS011;65651;53.154;17.916;2024-03-23T09:33:44;3.20;;;1.30;;
76725;SDS011;65651;53.154;17.916;2024-03-23T09:36:13;6.90;;;1.90;;
76725;SDS011;65651;53.154;17.916;2024-03-23T09:38:40;15.70;;;2.80;;
76725;SDS011;65651;53.154;17.916;2024-03-23T09:44:15;6.10;;;1.70;;
76725;SDS011;65651;53.154;17.916;2024-03-23T09:46:43;7.10;;;1.60;;
76725;SDS011;65651;53.154;17.916;2024-03-23T09:49:10;9.40;;;1.60;;
76725;SDS011;65651;53.154;17.916;2024-03-23T09:51:37;4.80;;;1.30;;
76725;SDS011;65651;53.154;17.916;2024-03-23T09:54:04;3.90;;;1.70;;
76725;SDS011;65651;53.154;17.916;2024-03-23T09:56:31;5.40;;;1.40;;
76725;SDS011;65651;53.154;17.916;2024-03-23T09:59:01;5.10;;;1.40;;
76725;SDS011;65651;53.154;17.916;2024-03-23T10:01:29;6.60;;;1.60;;
76725;SDS011;65651;53.154;17.916;2024-03-23T10:03:58;2.40;;;1.10;;
76725;SDS011;65651;53.154;17.916;2024-03-23T10:06:25;9.10;;;1.60;;
76725;SDS011;65651;53.154;17.916;2024-03-23T10:08:52;5.20;;;1.50;;
76725;SDS011;65651;53.154;17.916;2024-03-23T10:11:23;3.90;;;1.40;;
76725;SDS011;65651;53.154;17.916;2024-03-23T10:13:54;4.60;;;1.50;;
76725;SDS011;65651;53.154;17.916;2024-03-23T10:16:23;5.80;;;1.70;;
76725;SDS011;65651;53.154;17.916;2024-03-23T10:18:51;6.10;;;1.50;;
76725;SDS011;65651;53.154;17.916;2024-03-23T10:21:18;4.60;;;1.50;;
76725;SDS011;65651;53.154;17.916;2024-03-23T10:23:46;4.00;;;1.30;;
76725;SDS011;65651;53.154;17.916;2024-03-23T10:28:55;3.60;;;1.00;;
76725;SDS011;65651;53.154;17.916;2024-03-23T10:31:28;3.40;;;1.10;;
76725;SDS011;65651;53.154;17.916;2024-03-23T10:33:55;3.60;;;1.00;;
76725;SDS011;65651;53.154;17.916;2024-03-23T10:36:23;3.30;;;1.10;;
76725;SDS011;65651;53.154;17.916;2024-03-23T10:38:54;6.00;;;1.20;;
76725;SDS011;65651;53.154;17.916;2024-03-23T10:41:22;3.40;;;0.90;;
76725;SDS011;65651;53.154;17.916;2024-03-23T10:43:52;4.40;;;1.00;;
76725;SDS011;65651;53.154;17.916;2024-03-23T10:46:22;3.60;;;1.20;;
76725;SDS011;65651;53.154;17.916;2024-03-23T10:48:51;5.00;;;1.30;;
76725;SDS011;65651;53.154;17.916;2024-03-23T10:51:21;6.60;;;1.90;;
76725;SDS011;65651;53.154;17.916;2024-03-23T10:53:48;3.90;;;1.00;;
76725;SDS011;65651;53.154;17.916;2024-03-23T10:56:16;4.80;;;1.10;;
76725;SDS011;65651;53.154;17.916;2024-03-23T10:58:46;5.00;;;1.60;;
76725;SDS011;65651;53.154;17.916;2024-03-23T11:01:15;7.10;;;1.70;;
76725;SDS011;65651;53.154;17.916;2024-03-23T11:03:46;8.00;;;1.90;;
76725;SDS011;65651;53.154;17.916;2024-03-23T11:14:51;9.60;;;5.40;;
76725;SDS011;65651;53.154;17.916;2024-03-23T11:17:21;13.50;;;5.10;;
76725;SDS011;65651;53.154;17.916;2024-03-23T11:19:55;7.90;;;3.70;;
76725;SDS011;65651;53.154;17.916;2024-03-23T11:26:38;3.90;;;1.90;;
76725;SDS011;65651;53.154;17.916;2024-03-23T11:29:08;5.30;;;2.30;;
76725;SDS011;65651;53.154;17.916;2024-03-23T11:31:37;4.20;;;2.10;;
76725;SDS011;65651;53.154;17.916;2024-03-23T11:34:08;6.00;;;1.90;;
76725;SDS011;65651;53.154;17.916;2024-03-23T11:36:36;3.50;;;1.50;;
76725;SDS011;65651;53.154;17.916;2024-03-23T11:39:17;7.50;;;2.70;;
76725;SDS011;65651;53.154;17.916;2024-03-23T11:41:46;8.00;;;2.30;;
76725;SDS011;65651;53.154;17.916;2024-03-23T11:44:21;6.40;;;2.10;;
76725;SDS011;65651;53.154;17.916;2024-03-23T11:46:53;7.50;;;2.30;;
76725;SDS011;65651;53.154;17.916;2024-03-23T11:49:23;6.90;;;2.60;;
76725;SDS011;65651;53.154;17.916;2024-03-23T11:51:56;9.60;;;2.20;;
76725;SDS011;65651;53.154;17.916;2024-03-23T11:54:26;7.60;;;2.60;;
76725;SDS011;65651;53.154;17.916;2024-03-23T11:56:54;7.40;;;2.40;;
76725;SDS011;65651;53.154;17.916;2024-03-23T12:01:59;7.90;;;2.20;;
76725;SDS011;65651;53.154;17.916;2024-03-23T12:04:29;7.40;;;2.60;;
76725;SDS011;65651;53.154;17.916;2024-03-23T12:07:16;8.50;;;2.20;;
76725;SDS011;65651;53.154;17.916;2024-03-23T12:10:04;5.30;;;2.40;;
76725;SDS011;65651;53.154;17.916;2024-03-23T12:12:35;6.20;;;1.90;;
76725;SDS011;65651;53.154;17.916;2024-03-23T12:17:34;8.10;;;1.80;;
76725;SDS011;65651;53.154;17.916;2024-03-23T12:20:01;8.60;;;1.70;;
76725;SDS011;65651;53.154;17.916;2024-03-23T12:28:16;7.20;;;3.30;;
76725;SDS011;65651;53.154;17.916;2024-03-23T12:30:59;4.50;;;2.70;;
76725;SDS011;65651;53.154;17.916;2024-03-23T12:33:26;12.30;;;3.80;;
76725;SDS011;65651;53.154;17.916;2024-03-23T12:35:52;7.20;;;2.90;;
76725;SDS011;65651;53.154;17.916;2024-03-23T12:38:20;10.90;;;3.70;;
76725;SDS011;65651;53.154;17.916;2024-03-23T12:40:47;4.50;;;2.80;;
76725;SDS011;65651;53.154;17.916;2024-03-23T12:43:17;5.70;;;2.60;;
76725;SDS011;65651;53.154;17.916;2024-03-23T12:45:47;6.30;;;3.10;;
76725;SDS011;65651;53.154;17.916;2024-03-23T12:48:18;6.10;;;3.00;;
76725;SDS011;65651;53.154;17.916;2024-03-23T12:50:45;6.50;;;3.20;;
76725;SDS011;65651;53.154;17.916;2024-03-23T12:53:12;9.30;;;4.10;;
76725;SDS011;65651;53.154;17.916;2024-03-23T12:55:39;12.10;;;6.00;;
76725;SDS011;65651;53.154;17.916;2024-03-23T12:58:05;14.00;;;5.50;;
76725;SDS011;65651;53.154;17.916;2024-03-23T13:00:33;9.20;;;3.90;;
76725;SDS011;65651;53.154;17.916;2024-03-23T13:03:22;9.80;;;3.50;;
76725;SDS011;65651;53.154;17.916;2024-03-23T13:07:00;6.30;;;2.40;;
76725;SDS011;65651;53.154;17.916;2024-03-23T13:09:56;8.70;;;2.90;;
76725;SDS011;65651;53.154;17.916;2024-03-23T13:12:25;7.00;;;2.30;;
76725;SDS011;65651;53.154;17.916;2024-03-23T13:14:53;8.20;;;2.70;;
76725;SDS011;65651;53.154;17.916;2024-03-23T13:17:19;8.90;;;3.10;;
76725;SDS011;65651;53.154;17.916;2024-03-23T13:19:46;7.70;;;3.60;;
76725;SDS011;65651;53.154;17.916;2024-03-23T13:22:15;6.50;;;2.80;;
76725;SDS011;65651;53.154;17.916;2024-03-23T13:24:42;4.00;;;2.50;;
76725;SDS011;65651;53.154;17.916;2024-03-23T13:27:12;4.60;;;2.60;;
76725;SDS011;65651;53.154;17.916;2024-03-23T13:29:38;7.90;;;3.00;;
76725;SDS011;65651;53.154;17.916;2024-03-23T13:32:05;7.10;;;3.10;;
76725;SDS011;65651;53.154;17.916;2024-03-23T13:34:35;6.00;;;2.40;;
76725;SDS011;65651;53.154;17.916;2024-03-23T13:37:02;4.70;;;2.50;;
76725;SDS011;65651;53.154;17.916;2024-03-23T13:39:30;3.30;;;1.40;;
76725;SDS011;65651;53.154;17.916;2024-03-23T13:41:57;5.20;;;2.10;;
76725;SDS011;65651;53.154;17.916;2024-03-23T13:44:24;6.80;;;2.30;;
76725;SDS011;65651;53.154;17.916;2024-03-23T13:46:50;3.60;;;1.80;;
76725;SDS011;65651;53.154;17.916;2024-03-23T13:51:53;4.30;;;2.00;;
76725;SDS011;65651;53.154;17.916;2024-03-23T13:54:21;4.10;;;1.70;;
76725;SDS011;65651;53.154;17.916;2024-03-23T13:56:51;2.80;;;1.30;;
76725;SDS011;65651;53.154;17.916;2024-03-23T13:59:19;2.70;;;1.10;;
76725;SDS011;65651;53.154;17.916;2024-03-23T14:01:47;5.10;;;1.50;;
76725;SDS011;65651;53.154;17.916;2024-03-23T14:04:14;3.40;;;1.40;;
76725;SDS011;65651;53.154;17.916;2024-03-23T14:06:46;2.80;;;1.20;;
76725;SDS011;65651;53.154;17.916;2024-03-23T14:09:13;3.00;;;1.20;;
76725;SDS011;65651;53.154;17.916;2024-03-23T14:11:41;5.80;;;1.50;;
76725;SDS011;65651;53.154;17.916;2024-03-23T14:14:10;3.00;;;1.40;;
76725;SDS011;65651;53.154;17.916;2024-03-23T14:16:37;3.30;;;1.50;;
76725;SDS011;65651;53.154;17.916;2024-03-23T14:19:04;4.30;;;1.90;;
76725;SDS011;65651;53.154;17.916;2024-03-23T14:21:37;5.40;;;2.80;;
76725;SDS011;65651;53.154;17.916;2024-03-23T14:24:05;5.40;;;2.30;;
76725;SDS011;65651;53.154;17.916;2024-03-23T14:26:32;5.00;;;2.10;;
76725;SDS011;65651;53.154;17.916;2024-03-23T14:29:00;4.20;;;1.70;;
76725;SDS011;65651;53.154;17.916;2024-03-23T14:31:30;5.30;;;1.70;;
76725;SDS011;65651;53.154;17.916;2024-03-23T14:33:57;3.30;;;1.60;;
76725;SDS011;65651;53.154;17.916;2024-03-23T14:36:24;4.30;;;2.00;;
76725;SDS011;65651;53.154;17.916;2024-03-23T14:38:54;4.90;;;2.20;;
76725;SDS011;65651;53.154;17.916;2024-03-23T14:41:21;5.80;;;2.80;;
76725;SDS011;65651;53.154;17.916;2024-03-23T14:43:48;5.40;;;2.30;;
76725;SDS011;65651;53.154;17.916;2024-03-23T14:46:16;6.10;;;3.00;;
76725;SDS011;65651;53.154;17.916;2024-03-23T14:48:43;4.90;;;1.90;;
76725;SDS011;65651;53.154;17.916;2024-03-23T14:51:15;3.10;;;1.60;;
76725;SDS011;65651;53.154;17.916;2024-03-23T14:53:45;3.80;;;1.80;;
76725;SDS011;65651;53.154;17.916;2024-03-23T14:56:12;6.20;;;3.30;;
76725;SDS011;65651;53.154;17.916;2024-03-23T14:58:41;7.00;;;3.70;;
76725;SDS011;65651;53.154;17.916;2024-03-23T15:01:08;8.10;;;3.50;;
76725;SDS011;65651;53.154;17.916;2024-03-23T15:03:39;6.40;;;2.80;;
76725;SDS011;65651;53.154;17.916;2024-03-23T15:06:06;8.30;;;3.40;;
76725;SDS011;65651;53.154;17.916;2024-03-23T15:08:36;9.40;;;3.30;;
76725;SDS011;65651;53.154;17.916;2024-03-23T15:11:09;10.30;;;2.90;;
76725;SDS011;65651;53.154;17.916;2024-03-23T15:13:38;6.20;;;2.50;;
76725;SDS011;65651;53.154;17.916;2024-03-23T15:16:05;7.60;;;2.20;;
76725;SDS011;65651;53.154;17.916;2024-03-23T15:18:32;6.40;;;2.30;;
76725;SDS011;65651;53.154;17.916;2024-03-23T15:21:02;7.40;;;2.30;;
76725;SDS011;65651;53.154;17.916;2024-03-23T15:23:33;9.70;;;4.30;;
76725;SDS011;65651;53.154;17.916;2024-03-23T15:26:01;15.90;;;6.30;;
76725;SDS011;65651;53.154;17.916;2024-03-23T15:28:29;14.20;;;6.40;;
76725;SDS011;65651;53.154;17.916;2024-03-23T15:31:12;13.70;;;4.40;;
76725;SDS011;65651;53.154;17.916;2024-03-23T15:33:38;14.80;;;4.80;;
76725;SDS011;65651;53.154;17.916;2024-03-23T15:36:08;17.50;;;6.30;;
76725;SDS011;65651;53.154;17.916;2024-03-23T15:38:35;19.70;;;6.60;;
76725;SDS011;65651;53.154;17.916;2024-03-23T15:41:02;16.60;;;5.20;;
76725;SDS011;65651;53.154;17.916;2024-03-23T15:43:30;20.10;;;6.00;;
76725;SDS011;65651;53.154;17.916;2024-03-23T15:45:58;21.40;;;6.40;;
76725;SDS011;65651;53.154;17.916;2024-03-23T15:48:27;21.40;;;7.00;;
76725;SDS011;65651;53.154;17.916;2024-03-23T15:50:55;21.70;;;7.40;;
76725;SDS011;65651;53.154;17.916;2024-03-23T15:53:24;23.90;;;8.30;;
76725;SDS011;65651;53.154;17.916;2024-03-23T15:55:56;26.60;;;7.30;;
76725;SDS011;65651;53.154;17.916;2024-03-23T15:58:24;17.90;;;6.10;;
76725;SDS011;65651;53.154;17.916;2024-03-23T16:03:31;13.30;;;8.20;;